Nichiryu Maru — JG5632 — position and weather

sailwx.info

Track history (hours):
 
Tides and Currents Weather Stations Pressure Air Temp Water Temp Dewpoint Dewpoint Depression Visibility Wind Speed Wind Dir Waves Ship Positions

Nichiryu Maru

Last reported at 2016-May-30 11:08 UTC. Time now 2016-May-31 21:49 UTC.
Position N 35°02' E 139°37'.

Length 158 m; draft 6.5 m.

Type: Cargo ship. MMSI: 43100939.

Date/timePositionNaut miles runAvg speedWind from/ knotsBaromVisibWave heightAir tempDewpointWater temp
2016-May-30 11:08N 35°02' E 139°37'1118.3
2016-May-30 10:33N 35°09' E 139°46'1111.0
2016-May-30 09:34N 35°19' E 139°39'0 0.3
2016-May-30 08:32N 35°19' E 139°39'0 0.0
2016-May-30 07:29N 35°19' E 139°39'0 0.0
2016-May-30 06:32N 35°19' E 139°39'0 0.0
2016-May-30 05:32N 35°19' E 139°39'0 0.0
2016-May-30 04:32N 35°19' E 139°39'0 0.0
2016-May-30 03:32N 35°19' E 139°39'0 0.0
2016-May-30 02:26N 35°19' E 139°39'0 0.0
2016-May-30 01:32N 35°19' E 139°39'0 0.0
2016-May-30 00:32N 35°19' E 139°39'0 0.0
2016-May-29 23:33N 35°19' E 139°39'3 3.4
2016-May-29 22:33N 35°18' E 139°43'1212.3
2016-May-29 21:33N 35°06' E 139°45'1816.3
2016-May-29 20:26N 34°54' E 139°28'4815.2
2016-May-29 17:17N 34°31' E 138°37'  
2016-May-26 11:17N 34°55' E 139°27'1317.2
2016-May-26 10:33N 35°03' E 139°39'1414.4
2016-May-26 09:33N 35°16' E 139°46'6 6.4
2016-May-26 08:33N 35°19' E 139°39'0 0.0
2016-May-26 07:33N 35°19' E 139°39'0 0.0
2016-May-26 06:33N 35°19' E 139°39'0 0.0
2016-May-26 05:33N 35°19' E 139°39'0 0.0
2016-May-26 04:33N 35°19' E 139°39'0 0.1
2016-May-26 03:33N 35°19' E 139°39'9 8.8
2016-May-26 02:33N 35°13' E 139°47'1817.6
2016-May-26 01:33N 34°57' E 139°37'257 5.5
2016-May-24 03:05N 33°36' E 134°41'1018.1
2016-May-24 02:33N 33°43' E 134°50'21516.5
2016-May-23 13:32N 34°36' E 139°02'1717.3
2016-May-23 12:33N 34°47' E 139°17'1717.3
2016-May-23 11:33N 34°59' E 139°33'1717.2
2016-May-23 10:33N 35°12' E 139°46'9 8.6
2016-May-23 09:31N 35°19' E 139°39'0 0.0
2016-May-23 08:28N 35°19' E 139°39'0 0.0
2016-May-23 07:25N 35°19' E 139°39'0 0.0
2016-May-23 06:28N 35°19' E 139°39'0 0.0
2016-May-23 05:25N 35°19' E 139°39'0 0.0
2016-May-23 04:31N 35°19' E 139°39'0 0.0
2016-May-23 03:28N 35°19' E 139°39'0 0.0
2016-May-23 02:25N 35°19' E 139°39'0 0.0
2016-May-23 01:31N 35°19' E 139°39'0 0.0
2016-May-23 00:25N 35°19' E 139°39'0 0.0
2016-May-22 23:34N 35°19' E 139°39'4 3.9
2016-May-22 22:34N 35°18' E 139°44'1312.9
2016-May-22 21:34N 35°05' E 139°44'1818.1
2016-May-22 20:34N 34°51' E 139°31'1312.6
2016-May-22 19:31N 34°46' E 139°16'3716.9
2016-May-22 17:18N 34°30' E 138°35'  
Track history (hours):
 
Tides and Currents Weather Stations Pressure Air Temp Water Temp Dewpoint Dewpoint Depression Visibility Wind Speed Wind Dir Waves Ship Positions

Nichiryu Maru

Last reported at 2016-May-30 11:08 UTC. Time now 2016-May-31 21:49 UTC.
Position N 35°02' E 139°37'.

Length 158 m; draft 6.5 m.

Type: Cargo ship. MMSI: 43100939.

Date/timePositionNaut miles runAvg speedWind from/ knotsBaromVisibWave heightAir tempDewpointWater temp
2016-May-30 11:08N 35°02' E 139°37'1118.3
2016-May-30 10:33N 35°09' E 139°46'1111.0
2016-May-30 09:34N 35°19' E 139°39'0 0.3
2016-May-30 08:32N 35°19' E 139°39'0 0.0
2016-May-30 07:29N 35°19' E 139°39'0 0.0
2016-May-30 06:32N 35°19' E 139°39'0 0.0
2016-May-30 05:32N 35°19' E 139°39'0 0.0
2016-May-30 04:32N 35°19' E 139°39'0 0.0
2016-May-30 03:32N 35°19' E 139°39'0 0.0
2016-May-30 02:26N 35°19' E 139°39'0 0.0
2016-May-30 01:32N 35°19' E 139°39'0 0.0
2016-May-30 00:32N 35°19' E 139°39'0 0.0
2016-May-29 23:33N 35°19' E 139°39'3 3.4
2016-May-29 22:33N 35°18' E 139°43'1212.3
2016-May-29 21:33N 35°06' E 139°45'1816.3
2016-May-29 20:26N 34°54' E 139°28'4815.2
2016-May-29 17:17N 34°31' E 138°37'  
2016-May-26 11:17N 34°55' E 139°27'1317.2
2016-May-26 10:33N 35°03' E 139°39'1414.4
2016-May-26 09:33N 35°16' E 139°46'6 6.4
2016-May-26 08:33N 35°19' E 139°39'0 0.0
2016-May-26 07:33N 35°19' E 139°39'0 0.0
2016-May-26 06:33N 35°19' E 139°39'0 0.0
2016-May-26 05:33N 35°19' E 139°39'0 0.0
2016-May-26 04:33N 35°19' E 139°39'0 0.1
2016-May-26 03:33N 35°19' E 139°39'9 8.8
2016-May-26 02:33N 35°13' E 139°47'1817.6
2016-May-26 01:33N 34°57' E 139°37'257 5.5
2016-May-24 03:05N 33°36' E 134°41'1018.1
2016-May-24 02:33N 33°43' E 134°50'21516.5
2016-May-23 13:32N 34°36' E 139°02'1717.3
2016-May-23 12:33N 34°47' E 139°17'1717.3
2016-May-23 11:33N 34°59' E 139°33'1717.2
2016-May-23 10:33N 35°12' E 139°46'9 8.6
2016-May-23 09:31N 35°19' E 139°39'0 0.0
2016-May-23 08:28N 35°19' E 139°39'0 0.0
2016-May-23 07:25N 35°19' E 139°39'0 0.0
2016-May-23 06:28N 35°19' E 139°39'0 0.0
2016-May-23 05:25N 35°19' E 139°39'0 0.0
2016-May-23 04:31N 35°19' E 139°39'0 0.0
2016-May-23 03:28N 35°19' E 139°39'0 0.0
2016-May-23 02:25N 35°19' E 139°39'0 0.0
2016-May-23 01:31N 35°19' E 139°39'0 0.0
2016-May-23 00:25N 35°19' E 139°39'0 0.0
2016-May-22 23:34N 35°19' E 139°39'4 3.9
2016-May-22 22:34N 35°18' E 139°44'1312.9
2016-May-22 21:34N 35°05' E 139°44'1818.1
2016-May-22 20:34N 34°51' E 139°31'1312.6
2016-May-22 19:31N 34°46' E 139°16'3716.9
2016-May-22 17:18N 34°30' E 138°35'  

Dump ship's entire track history